createdAt,value
2018-07-11T03:10:30.983Z,1.87
2018-07-11T06:03:58.992Z,3.20
2018-07-11T06:26:13.573Z,1.63
2018-07-11T06:28:41.707Z,8.37
2018-07-11T06:31:09.893Z,5.37
2018-07-11T06:33:38.161Z,2.47
2018-07-11T06:36:06.636Z,2.53
2018-07-11T06:38:34.820Z,2.07
2018-07-11T06:41:03.076Z,1.97
2018-07-11T06:43:31.291Z,2.00
2018-07-11T06:45:59.457Z,1.90
2018-07-11T06:48:28.031Z,2.13
2018-07-11T06:50:56.476Z,2.10
2018-07-11T06:53:25.674Z,1.77
2018-07-11T06:55:54.272Z,1.80
2018-07-11T06:58:23.141Z,1.63
2018-07-11T07:00:51.545Z,1.50
2018-07-11T07:03:19.947Z,1.50
2018-07-11T07:05:48.167Z,1.40
2018-07-11T07:08:16.397Z,1.67
2018-07-11T07:10:45.280Z,2.03
2018-07-11T07:13:14.893Z,2.10
2018-07-11T07:15:44.005Z,1.70
2018-07-11T07:18:12.496Z,1.20
2018-07-11T07:20:41.447Z,1.70
2018-07-11T07:23:10.440Z,2.17
2018-07-11T07:25:39.479Z,1.40
2018-07-11T07:28:07.720Z,1.80
2018-07-11T07:30:36.817Z,2.20
2018-07-11T07:33:05.222Z,2.10
2018-07-11T07:35:35.377Z,1.47
2018-07-11T07:38:04.060Z,1.80
2018-07-11T07:40:32.389Z,1.57
2018-07-11T07:43:00.709Z,1.80
2018-07-11T07:45:29.704Z,1.80
2018-07-11T07:47:59.712Z,1.73
2018-07-11T07:50:27.959Z,1.70
2018-07-11T07:52:56.560Z,1.60
2018-07-11T07:55:25.604Z,1.60
2018-07-11T07:57:53.775Z,2.10
2018-07-11T08:00:22.786Z,1.70
2018-07-11T08:02:51.827Z,1.73
2018-07-11T08:05:20.723Z,1.57
2018-07-11T08:07:49.749Z,1.60
2018-07-11T08:10:19.072Z,1.47
2018-07-11T08:12:47.411Z,1.60
2018-07-11T08:15:15.741Z,1.83
2018-07-11T08:17:44.735Z,1.87
2018-07-11T08:20:13.702Z,1.57
2018-07-11T08:23:13.401Z,1.50
2018-07-11T08:25:47.478Z,1.83
2018-07-11T08:28:21.182Z,1.83
2018-07-11T08:31:25.739Z,1.60
2018-07-11T08:34:07.304Z,1.57
2018-07-11T08:36:52.013Z,2.00
2018-07-11T08:41:28.970Z,2.27
2018-07-11T08:46:07.313Z,1.80
2018-07-11T08:50:46.887Z,1.60
2018-07-11T08:57:41.231Z,1.93
2018-07-11T09:00:16.214Z,1.60
2018-07-11T09:02:47.850Z,1.70
2018-07-11T09:05:29.107Z,1.53
2018-07-11T09:08:19.592Z,1.60
2018-07-11T09:12:59.631Z,1.90
2018-07-11T09:15:38.089Z,1.53
2018-07-11T09:20:21.658Z,1.60
2018-07-11T09:22:56.386Z,1.30
2018-07-11T09:25:32.545Z,1.20
2018-07-11T09:28:01.745Z,1.37
2018-07-11T09:30:31.131Z,1.27
2018-07-11T09:35:39.585Z,1.50
2018-07-11T09:38:10.324Z,1.53
2018-07-11T09:40:45.154Z,1.40
2018-07-11T09:43:15.994Z,1.50
2018-07-11T09:45:48.878Z,1.40
2018-07-11T09:48:18.889Z,1.30
2018-07-11T09:50:47.895Z,1.50
2018-07-11T09:53:16.995Z,1.63
2018-07-11T10:03:58.882Z,1.90
2018-07-11T10:06:40.104Z,1.60
2018-07-11T10:09:09.309Z,1.77
2018-07-11T10:11:51.872Z,2.03
2018-07-11T10:14:21.733Z,1.90
2018-07-11T10:25:32.428Z,2.00
2018-07-11T10:28:07.361Z,1.90
2018-07-11T10:30:46.697Z,2.00
2018-07-11T10:33:20.481Z,2.10
2018-07-11T10:36:05.258Z,2.20
2018-07-11T10:38:38.143Z,2.20
2018-07-11T10:41:16.628Z,1.90
2018-07-11T11:03:30.064Z,2.43
2018-07-11T11:06:08.199Z,1.97
2018-07-11T11:11:34.230Z,1.60
2018-07-11T11:14:07.161Z,1.80
2018-07-11T11:16:41.621Z,1.87
2018-07-11T11:19:10.708Z,1.90
2018-07-11T11:37:26.658Z,1.70
2018-07-11T11:55:42.691Z,1.70
2018-07-11T11:58:11.142Z,2.00
2018-07-11T12:00:41.914Z,1.87
2018-07-11T12:03:10.806Z,2.13
2018-07-11T12:05:39.972Z,1.80
2018-07-11T12:08:08.239Z,1.80
2018-07-11T12:10:36.579Z,2.00
2018-07-11T12:13:05.435Z,1.77
2018-07-11T12:15:35.023Z,1.70
2018-07-11T12:20:51.494Z,1.80
2018-07-11T12:23:22.740Z,2.00
2018-07-11T12:45:46.305Z,1.90
2018-07-11T12:48:21.002Z,2.27
2018-07-11T12:50:53.069Z,1.70
2018-07-11T13:07:34.368Z,2.00
2018-07-11T13:10:11.587Z,2.03
2018-07-11T13:12:49.693Z,2.00
2018-07-11T13:18:25.959Z,2.43
2018-07-11T13:23:55.370Z,2.00
2018-07-11T13:26:27.334Z,2.00
2018-07-11T13:28:57.665Z,2.23
2018-07-11T13:34:25.956Z,2.30
2018-07-11T13:36:58.221Z,2.07
2018-07-11T13:39:27.627Z,1.90
2018-07-11T13:42:04.028Z,2.20
2018-07-11T13:47:35.823Z,2.07
2018-07-11T13:50:08.031Z,2.20
2018-07-11T13:52:37.289Z,1.83
2018-07-11T14:10:50.368Z,2.20
2018-07-11T14:13:19.456Z,2.33
2018-07-11T14:15:52.038Z,2.27
2018-07-11T14:18:21.748Z,2.20
2018-07-11T14:20:50.006Z,2.10
2018-07-11T14:23:42.051Z,2.40
2018-07-11T14:26:12.589Z,2.23
2018-07-11T14:28:43.219Z,2.20
2018-07-11T14:39:09.925Z,2.40
2018-07-11T14:41:38.496Z,2.40
2018-07-11T14:44:06.783Z,2.07
2018-07-11T14:46:35.038Z,1.97
2018-07-11T14:49:05.172Z,2.07
2018-07-11T14:51:38.648Z,2.20
2018-07-11T15:03:46.169Z,2.13
2018-07-11T15:06:18.237Z,2.10
2018-07-11T15:08:49.740Z,2.13
2018-07-11T15:11:17.945Z,2.10
2018-07-11T15:13:46.103Z,2.30
2018-07-11T15:16:14.284Z,2.13
2018-07-11T15:18:42.517Z,1.90
2018-07-11T15:21:10.772Z,2.27
2018-07-11T15:23:38.956Z,1.80
2018-07-11T15:28:48.115Z,2.57
2018-07-11T15:31:23.767Z,1.80
2018-07-11T15:51:06.478Z,1.80
2018-07-11T15:53:34.877Z,2.20
2018-07-11T15:56:04.245Z,2.20
2018-07-11T15:58:39.412Z,1.60
2018-07-11T16:01:08.320Z,1.90
2018-07-11T16:03:47.587Z,1.80
2018-07-11T16:06:19.755Z,1.80
2018-07-11T16:08:51.390Z,2.27
2018-07-11T16:11:21.026Z,2.07
2018-07-11T16:13:49.600Z,1.90
2018-07-11T16:16:17.950Z,1.90
2018-07-11T16:18:46.440Z,1.60
2018-07-11T16:21:16.406Z,1.97
2018-07-11T16:23:46.222Z,2.30
2018-07-11T16:26:16.034Z,1.90
2018-07-11T16:28:44.992Z,1.80
2018-07-11T16:31:15.152Z,2.00
2018-07-11T17:11:51.813Z,1.80
2018-07-11T17:36:20.608Z,2.10
2018-07-11T17:38:52.673Z,2.13
2018-07-11T17:41:23.713Z,2.60
2018-07-11T17:43:52.334Z,2.20
2018-07-11T17:46:21.013Z,2.20
2018-07-11T17:48:55.156Z,2.57
2018-07-11T17:51:26.075Z,2.40
2018-07-11T17:53:55.052Z,2.37
2018-07-11T17:56:27.275Z,2.30
2018-07-11T17:58:57.799Z,2.33
2018-07-11T18:01:48.505Z,2.73
2018-07-11T18:04:25.166Z,2.40
2018-07-11T18:07:25.608Z,2.47
2018-07-11T18:09:58.505Z,2.43
2018-07-11T18:12:28.605Z,2.60
2018-07-11T18:15:03.567Z,2.83
2018-07-11T18:19:43.919Z,2.63
2018-07-11T18:22:24.521Z,2.90
2018-07-11T18:24:57.292Z,3.17
2018-07-11T18:27:31.653Z,3.13
2018-07-11T18:45:50.822Z,2.57
2018-07-11T18:48:29.198Z,3.40
2018-07-11T18:51:19.647Z,2.63
2018-07-11T18:54:04.838Z,2.87
2018-07-11T18:56:41.134Z,2.90
2018-07-11T18:59:16.211Z,2.50
2018-07-11T19:01:49.059Z,2.73
2018-07-11T19:04:25.427Z,2.47
2018-07-11T19:07:00.855Z,2.60
2018-07-11T19:09:43.466Z,3.03
2018-07-11T19:12:13.691Z,2.77
2018-07-11T19:14:46.280Z,2.70
2018-07-11T19:17:48.426Z,3.03
2018-07-11T19:20:18.899Z,3.00
2018-07-11T19:22:52.747Z,3.07
2018-07-11T19:25:25.757Z,2.80
2018-07-11T19:28:02.524Z,2.87
2018-07-11T19:30:42.156Z,3.37
2018-07-11T19:33:15.799Z,2.70
2018-07-11T19:35:49.476Z,2.67
2018-07-11T19:38:38.668Z,2.93
2018-07-11T19:41:23.910Z,2.70
2018-07-11T19:45:04.262Z,2.80
2018-07-11T19:47:36.536Z,3.10
2018-07-11T19:52:22.507Z,2.60
2018-07-11T19:54:55.093Z,2.70
2018-07-11T19:57:24.154Z,2.97
2018-07-11T19:59:52.287Z,2.90
2018-07-11T20:02:20.578Z,3.07
2018-07-11T20:04:48.804Z,3.07
2018-07-11T20:07:17.049Z,3.83
2018-07-11T20:09:45.276Z,3.30
2018-07-11T20:12:13.757Z,3.10
2018-07-11T20:14:41.940Z,3.20
2018-07-11T20:17:10.120Z,3.00
2018-07-11T20:19:39.580Z,2.77
2018-07-11T20:22:07.811Z,2.87
2018-07-11T20:24:36.000Z,2.70
2018-07-11T20:27:04.961Z,2.90
2018-07-11T20:29:33.404Z,2.80
2018-07-11T20:32:01.904Z,2.73
2018-07-11T20:34:30.352Z,2.93
2018-07-11T20:36:59.135Z,2.50
2018-07-11T20:39:27.417Z,3.03
2018-07-11T20:41:56.212Z,2.90
2018-07-11T20:44:25.464Z,2.40
2018-07-11T20:46:54.410Z,2.50
2018-07-11T20:49:28.398Z,2.60
2018-07-11T20:51:57.522Z,2.97
2018-07-11T20:54:26.553Z,3.07
2018-07-11T20:56:54.897Z,2.60
2018-07-11T20:59:28.858Z,3.17
2018-07-11T21:02:02.526Z,3.17
2018-07-11T21:04:36.432Z,3.17
2018-07-11T21:07:10.046Z,2.93
2018-07-11T21:11:49.349Z,2.80
2018-07-11T21:15:26.708Z,3.40
2018-07-11T21:19:00.374Z,3.00
2018-07-11T21:21:28.513Z,3.40
2018-07-11T21:23:56.681Z,3.23
2018-07-11T21:26:24.873Z,3.13
2018-07-11T21:28:54.101Z,3.53
2018-07-11T21:31:23.196Z,3.20
2018-07-11T21:33:52.348Z,3.10
2018-07-11T21:36:21.122Z,3.33
2018-07-11T21:38:50.508Z,2.90
2018-07-11T21:41:19.354Z,3.43
2018-07-11T21:43:48.594Z,2.90
2018-07-11T21:46:16.875Z,3.60
2018-07-11T21:48:45.489Z,3.27
2018-07-11T21:51:14.642Z,3.33
2018-07-11T21:53:43.476Z,3.43
2018-07-11T21:56:12.366Z,3.13
2018-07-11T21:58:40.842Z,3.07
2018-07-11T22:01:10.752Z,2.77
2018-07-11T22:03:39.812Z,2.97
2018-07-11T22:06:08.732Z,3.17
2018-07-11T22:08:37.011Z,3.20
2018-07-11T22:11:05.516Z,3.33
2018-07-11T22:13:34.181Z,3.37
2018-07-11T22:16:03.185Z,3.20
2018-07-11T22:18:33.904Z,3.70
2018-07-11T22:21:02.332Z,3.13
2018-07-11T22:23:29.945Z,2.67
2018-07-11T22:25:57.740Z,3.20
2018-07-11T22:28:26.149Z,3.00
2018-07-11T22:30:53.772Z,3.23
2018-07-11T22:33:21.377Z,3.10
2018-07-11T22:35:48.940Z,3.20
2018-07-11T22:38:16.581Z,3.40
2018-07-11T22:40:45.329Z,3.50
2018-07-11T22:43:12.985Z,3.53
2018-07-11T22:45:41.901Z,3.50
2018-07-11T22:48:10.270Z,3.40
2018-07-11T22:50:39.026Z,3.87
2018-07-11T22:53:07.186Z,4.10
2018-07-11T22:55:34.787Z,3.73
2018-07-11T22:58:02.768Z,3.63
2018-07-11T23:00:31.016Z,3.07
2018-07-11T23:02:58.573Z,3.87
2018-07-11T23:05:26.169Z,3.30
2018-07-11T23:07:54.313Z,3.33
2018-07-11T23:10:22.289Z,3.47
2018-07-11T23:12:50.644Z,3.53
2018-07-11T23:15:18.132Z,3.83
2018-07-11T23:17:46.504Z,3.83
2018-07-11T23:20:14.109Z,3.60
2018-07-11T23:22:41.989Z,3.50
2018-07-11T23:25:10.263Z,3.60
2018-07-11T23:27:37.829Z,3.50
2018-07-11T23:30:05.331Z,3.60
2018-07-11T23:32:32.894Z,3.47
2018-07-11T23:35:01.200Z,3.10
2018-07-11T23:37:28.750Z,3.40
2018-07-11T23:39:56.342Z,3.83
2018-07-11T23:42:23.841Z,3.83
2018-07-11T23:44:51.471Z,3.80
2018-07-11T23:47:19.549Z,4.13
2018-07-11T23:49:47.606Z,3.63
2018-07-11T23:52:15.097Z,3.73
2018-07-11T23:54:42.753Z,3.60
2018-07-11T23:57:10.347Z,3.90
2018-07-11T23:59:37.868Z,3.67
